createdAt,value
2018-07-03T00:00:48.805Z,2.87
2018-07-03T00:03:17.881Z,2.80
2018-07-03T00:05:47.009Z,3.63
2018-07-03T00:08:16.064Z,2.33
2018-07-03T00:10:45.100Z,6.90
2018-07-03T00:13:14.161Z,3.40
2018-07-03T00:15:43.673Z,4.30
2018-07-03T00:18:12.868Z,5.93
2018-07-03T00:20:42.042Z,2.60
2018-07-03T00:23:11.117Z,3.47
2018-07-03T00:25:40.154Z,2.50
2018-07-03T00:28:09.218Z,3.47
2018-07-03T00:30:38.345Z,3.10
2018-07-03T00:33:07.651Z,6.10
2018-07-03T00:35:36.774Z,3.83
2018-07-03T00:38:06.240Z,3.07
2018-07-03T00:40:35.419Z,2.57
2018-07-03T00:43:04.520Z,2.60
2018-07-03T00:45:33.590Z,9.43
2018-07-03T00:48:02.691Z,2.50
2018-07-03T00:50:38.305Z,3.00
2018-07-03T00:53:07.341Z,2.70
2018-07-03T00:55:37.445Z,3.30
2018-07-03T00:58:06.533Z,2.70
2018-07-03T01:00:36.197Z,3.00
2018-07-03T01:03:05.467Z,4.60
2018-07-03T01:05:34.656Z,3.30
2018-07-03T01:08:03.695Z,2.30
2018-07-03T01:10:32.754Z,2.60
2018-07-03T01:13:01.809Z,2.90
2018-07-03T01:15:30.897Z,3.90
2018-07-03T01:17:59.970Z,2.83
2018-07-03T01:20:29.105Z,3.40
2018-07-03T01:22:58.166Z,7.27
2018-07-03T01:25:27.254Z,3.23
2018-07-03T01:27:56.322Z,2.40
2018-07-03T01:30:25.397Z,2.77
2018-07-03T01:32:54.456Z,2.77
2018-07-03T01:35:23.520Z,5.10
2018-07-03T01:37:52.567Z,5.80
2018-07-03T01:40:21.649Z,5.40
2018-07-03T01:42:50.867Z,3.27
2018-07-03T01:45:20.913Z,2.73
2018-07-03T01:47:50.062Z,3.73
2018-07-03T01:50:19.299Z,2.60
2018-07-03T01:52:48.367Z,3.60
2018-07-03T01:55:17.989Z,4.00
2018-07-03T01:57:47.053Z,2.80
2018-07-03T02:00:16.237Z,6.20
2018-07-03T02:02:45.288Z,2.13
2018-07-03T02:05:14.368Z,2.33
2018-07-03T02:07:43.421Z,2.33
2018-07-03T02:10:12.473Z,2.40
2018-07-03T02:12:41.613Z,2.80
2018-07-03T02:15:10.649Z,4.30
2018-07-03T02:17:39.730Z,2.67
2018-07-03T02:20:08.830Z,4.23
2018-07-03T02:22:37.937Z,2.77
2018-07-03T02:25:07.034Z,6.23
2018-07-03T02:27:36.081Z,3.00
2018-07-03T02:30:05.585Z,2.80
2018-07-03T02:32:34.682Z,3.43
2018-07-03T02:35:03.796Z,5.80
2018-07-03T02:37:32.836Z,3.03
2018-07-03T02:40:01.896Z,3.30
2018-07-03T02:42:30.940Z,2.93
2018-07-03T02:44:59.994Z,2.83
2018-07-03T02:47:29.026Z,3.20
2018-07-03T02:49:58.127Z,2.77
2018-07-03T02:52:27.165Z,5.33
2018-07-03T02:54:56.236Z,3.40
2018-07-03T02:57:25.278Z,2.90
2018-07-03T02:59:54.405Z,5.50
2018-07-03T03:02:23.444Z,2.90
2018-07-03T03:04:52.510Z,8.03
2018-07-03T03:07:21.567Z,2.60
2018-07-03T03:09:50.641Z,3.27
2018-07-03T03:12:19.736Z,2.80
2018-07-03T03:14:50.025Z,3.80
2018-07-03T03:17:20.323Z,4.63
2018-07-03T03:19:49.429Z,5.30
2018-07-03T03:22:18.466Z,2.80
2018-07-03T03:24:47.469Z,2.83
2018-07-03T03:27:16.576Z,2.53
2018-07-03T03:29:45.609Z,4.70
2018-07-03T03:32:14.675Z,2.90
2018-07-03T03:34:43.745Z,2.80
2018-07-03T03:37:12.822Z,4.87
2018-07-03T03:39:41.875Z,4.27
2018-07-03T03:42:10.980Z,2.57
2018-07-03T03:44:40.531Z,4.53
2018-07-03T03:47:09.634Z,3.00
2018-07-03T03:49:38.693Z,6.10
2018-07-03T03:52:07.773Z,4.70
2018-07-03T03:54:37.126Z,4.57
2018-07-03T03:57:06.447Z,2.93
2018-07-03T03:59:35.562Z,6.30
2018-07-03T04:02:07.740Z,3.53
2018-07-03T04:04:37.406Z,3.77
2018-07-03T04:07:06.637Z,3.43
2018-07-03T04:09:35.689Z,4.37
2018-07-03T04:12:04.776Z,6.63
2018-07-03T04:14:33.958Z,3.00
2018-07-03T04:17:03.029Z,4.17
2018-07-03T04:19:32.214Z,5.50
2018-07-03T04:22:01.310Z,5.47
2018-07-03T04:24:30.357Z,3.33
2018-07-03T04:26:59.394Z,7.60
2018-07-03T04:29:28.584Z,3.23
2018-07-03T04:31:57.608Z,6.93
2018-07-03T04:34:26.682Z,3.40
2018-07-03T04:36:55.697Z,8.50
2018-07-03T04:39:25.206Z,4.90
2018-07-03T04:41:54.453Z,7.43
2018-07-03T04:44:23.499Z,2.90
2018-07-03T04:46:52.578Z,2.97
2018-07-03T04:49:21.589Z,2.70
2018-07-03T04:51:50.655Z,6.53
2018-07-03T04:54:19.924Z,4.73
2018-07-03T04:56:49.059Z,3.03
2018-07-03T04:59:18.486Z,5.47
2018-07-03T05:01:47.515Z,4.23
2018-07-03T05:04:16.938Z,6.27
2018-07-03T05:06:46.284Z,3.70
2018-07-03T05:09:15.296Z,4.80
2018-07-03T05:11:44.673Z,6.10
2018-07-03T05:14:13.738Z,7.60
2018-07-03T05:16:42.806Z,2.97
2018-07-03T05:19:11.844Z,2.80
2018-07-03T05:21:41.037Z,3.37
2018-07-03T05:24:10.077Z,5.93
2018-07-03T05:26:39.174Z,7.63
2018-07-03T05:29:08.214Z,6.50
2018-07-03T05:31:37.697Z,3.63
2018-07-03T05:34:07.162Z,4.20
2018-07-03T05:36:36.341Z,3.20
2018-07-03T05:39:08.034Z,4.40
2018-07-03T05:41:37.493Z,7.23
2018-07-03T05:44:06.497Z,2.40
2018-07-03T05:46:35.616Z,5.13
2018-07-03T05:49:04.818Z,9.03
2018-07-03T05:51:34.446Z,6.00
2018-07-03T05:54:04.377Z,2.60
2018-07-03T05:56:33.470Z,10.83
2018-07-03T05:59:02.605Z,9.13
2018-07-03T06:01:32.013Z,11.00
2018-07-03T06:04:01.130Z,6.50
2018-07-03T06:06:30.839Z,10.23
2018-07-03T06:08:59.952Z,10.53
2018-07-03T06:11:29.009Z,2.87
2018-07-03T06:13:58.082Z,1.80
2018-07-03T06:16:27.176Z,5.33
2018-07-03T06:18:56.414Z,2.53
2018-07-03T06:21:25.388Z,3.50
2018-07-03T06:23:55.067Z,7.07
2018-07-03T06:26:24.094Z,12.23
2018-07-03T06:28:53.193Z,2.60
2018-07-03T06:31:22.241Z,5.97
2018-07-03T06:33:51.349Z,7.37
2018-07-03T06:36:20.429Z,4.07
2018-07-03T06:38:49.721Z,6.93
2018-07-03T06:41:18.846Z,4.43
2018-07-03T06:43:48.043Z,4.50
2018-07-03T06:46:17.148Z,5.80
2018-07-03T06:48:46.421Z,4.10
2018-07-03T06:51:15.645Z,6.60
2018-07-03T06:53:44.693Z,7.73
2018-07-03T06:56:13.819Z,18.90
2018-07-03T06:58:42.942Z,7.73
2018-07-03T07:01:12.011Z,10.67
2018-07-03T07:03:41.401Z,2.83
2018-07-03T07:06:10.517Z,3.87
2018-07-03T07:08:39.774Z,7.00
2018-07-03T07:11:08.703Z,4.03
2018-07-03T07:13:38.088Z,5.97
2018-07-03T07:16:07.142Z,6.00
2018-07-03T07:18:36.365Z,4.83
2018-07-03T07:21:05.460Z,15.47
2018-07-03T07:23:34.751Z,9.83
2018-07-03T07:26:03.784Z,5.20
2018-07-03T07:28:32.897Z,10.90
2018-07-03T07:31:02.125Z,9.57
2018-07-03T07:33:31.166Z,2.30
2018-07-03T07:36:00.324Z,5.10
2018-07-03T07:38:29.597Z,23.03
2018-07-03T07:40:58.706Z,8.83
2018-07-03T07:43:27.840Z,6.10
2018-07-03T07:45:59.296Z,5.60
2018-07-03T07:48:28.352Z,10.03
2018-07-03T07:50:57.429Z,16.03
2018-07-03T07:53:26.604Z,8.87
2018-07-03T07:55:55.863Z,5.27
2018-07-03T07:58:24.975Z,9.40
2018-07-03T08:00:54.172Z,7.30
2018-07-03T08:03:23.415Z,1.90
2018-07-03T08:05:52.531Z,9.63
2018-07-03T08:08:21.626Z,12.93
2018-07-03T08:10:50.722Z,6.57
2018-07-03T08:13:19.832Z,3.37
2018-07-03T08:15:48.932Z,2.70
2018-07-03T08:18:18.065Z,4.57
2018-07-03T08:20:47.166Z,4.67
2018-07-03T08:23:16.293Z,2.13
2018-07-03T08:25:45.377Z,10.03
2018-07-03T08:28:14.428Z,6.70
2018-07-03T08:30:43.634Z,4.17
2018-07-03T08:33:13.857Z,4.93
2018-07-03T08:35:43.070Z,4.77
2018-07-03T08:38:12.373Z,8.60
2018-07-03T08:40:41.774Z,6.90
2018-07-03T08:43:10.828Z,7.27
2018-07-03T08:45:39.902Z,2.73
2018-07-03T08:48:08.952Z,2.17
2018-07-03T08:50:38.062Z,3.80
2018-07-03T08:53:07.183Z,3.60
2018-07-03T08:55:36.364Z,5.90
2018-07-03T08:58:05.554Z,3.20
2018-07-03T09:00:35.255Z,8.03
2018-07-03T09:03:04.486Z,8.20
2018-07-03T09:05:33.534Z,4.40
2018-07-03T09:08:02.613Z,3.17
2018-07-03T09:10:31.662Z,7.13
2018-07-03T09:13:00.830Z,5.17
2018-07-03T09:15:30.250Z,2.30
2018-07-03T09:17:59.343Z,10.10
2018-07-03T09:20:28.504Z,9.83
2018-07-03T09:22:57.553Z,4.60
2018-07-03T09:25:26.641Z,9.20
2018-07-03T09:27:55.820Z,4.90
2018-07-03T09:30:24.920Z,4.80
2018-07-03T09:32:54.090Z,2.23
2018-07-03T09:35:23.221Z,3.17
2018-07-03T09:37:52.405Z,4.63
2018-07-03T09:40:21.534Z,2.10
2018-07-03T09:42:51.686Z,4.37
2018-07-03T09:45:20.720Z,4.13
2018-07-03T09:47:49.842Z,1.83
2018-07-03T09:50:18.905Z,4.17
2018-07-03T09:52:48.007Z,5.73
2018-07-03T09:55:17.097Z,5.50
2018-07-03T09:57:46.653Z,2.00
2018-07-03T10:00:20.206Z,2.33
2018-07-03T10:02:49.916Z,4.83
2018-07-03T10:05:19.057Z,6.10
2018-07-03T10:07:48.541Z,3.53
2018-07-03T10:10:17.693Z,4.83
2018-07-03T10:12:46.738Z,4.90
2018-07-03T10:15:15.843Z,2.10
2018-07-03T10:17:44.945Z,2.87
2018-07-03T10:20:14.117Z,8.30
2018-07-03T10:22:43.326Z,3.60
2018-07-03T10:25:12.425Z,5.93
2018-07-03T10:27:41.632Z,11.87
2018-07-03T10:30:10.685Z,4.13
2018-07-03T10:32:39.833Z,10.50
2018-07-03T10:35:08.998Z,4.97
2018-07-03T10:37:38.077Z,3.67
2018-07-03T10:40:07.264Z,5.37
2018-07-03T10:42:36.363Z,1.60
2018-07-03T10:45:05.563Z,3.63
2018-07-03T10:47:34.606Z,3.70
2018-07-03T10:50:03.725Z,3.80
2018-07-03T10:52:32.822Z,4.93
2018-07-03T10:55:01.871Z,2.47
2018-07-03T10:57:31.006Z,6.93
2018-07-03T11:00:00.110Z,8.50
2018-07-03T11:02:29.149Z,1.70
2018-07-03T11:04:58.277Z,3.37
2018-07-03T11:07:27.314Z,2.27
2018-07-03T11:09:56.381Z,2.63
2018-07-03T11:12:26.601Z,2.90
2018-07-03T11:14:55.717Z,2.53
2018-07-03T11:17:24.962Z,5.30
2018-07-03T11:19:54.275Z,4.13
2018-07-03T11:22:23.424Z,2.47
2018-07-03T11:24:52.481Z,4.50
2018-07-03T11:27:21.538Z,2.90
2018-07-03T11:29:51.678Z,4.10
2018-07-03T11:32:20.866Z,4.40
2018-07-03T11:34:50.034Z,5.57
2018-07-03T11:37:20.050Z,2.77
2018-07-03T11:39:49.971Z,4.43
2018-07-03T11:42:19.334Z,1.70
2018-07-03T11:44:48.403Z,2.00
2018-07-03T11:47:17.580Z,2.17
2018-07-03T11:49:46.598Z,3.50
2018-07-03T11:52:15.709Z,2.03
2018-07-03T11:54:44.815Z,2.17
2018-07-03T11:57:13.969Z,8.50
2018-07-03T11:59:43.035Z,4.00
2018-07-03T12:02:12.199Z,4.33
2018-07-03T12:04:41.243Z,2.10
2018-07-03T12:07:10.392Z,5.03
2018-07-03T12:09:39.489Z,4.37
2018-07-03T12:12:08.619Z,2.63
2018-07-03T12:14:38.911Z,4.43
2018-07-03T12:17:08.656Z,1.63
2018-07-03T12:19:38.278Z,7.60
2018-07-03T12:22:07.356Z,5.00
2018-07-03T12:24:36.381Z,11.30
2018-07-03T12:27:05.529Z,5.90
2018-07-03T12:29:34.626Z,3.37
2018-07-03T12:32:03.711Z,2.23
2018-07-03T12:34:32.847Z,1.70
2018-07-03T12:37:02.032Z,7.20
2018-07-03T12:39:31.637Z,3.33
2018-07-03T12:42:00.741Z,3.87
2018-07-03T12:44:29.902Z,1.63
2018-07-03T12:46:59.026Z,1.90
2018-07-03T12:49:28.290Z,5.03
2018-07-03T12:51:57.452Z,1.97
2018-07-03T12:54:26.641Z,6.47
2018-07-03T12:56:55.716Z,2.97
2018-07-03T12:59:25.229Z,1.70
2018-07-03T13:01:54.400Z,2.17
2018-07-03T13:04:23.442Z,1.70
2018-07-03T13:06:52.615Z,1.90
2018-07-03T13:09:21.660Z,4.50
2018-07-03T13:11:50.731Z,1.80
2018-07-03T13:14:19.802Z,3.60
2018-07-03T13:16:48.933Z,1.90
2018-07-03T13:19:18.057Z,5.83
2018-07-03T13:21:47.165Z,4.53
2018-07-03T13:24:16.283Z,2.07
2018-07-03T13:26:45.336Z,4.03
2018-07-03T13:29:14.442Z,3.00
2018-07-03T13:31:43.622Z,3.67
2018-07-03T13:34:12.768Z,5.63
2018-07-03T13:36:41.821Z,8.67
2018-07-03T13:39:11.575Z,1.57
2018-07-03T13:41:40.725Z,3.17
2018-07-03T13:44:10.634Z,3.00
2018-07-03T13:46:39.693Z,2.20
2018-07-03T13:49:08.767Z,7.40
2018-07-03T13:51:37.842Z,2.30
2018-07-03T13:54:06.965Z,2.40
2018-07-03T13:56:36.134Z,3.90
2018-07-03T13:59:05.272Z,2.23
2018-07-03T14:01:34.313Z,1.80
2018-07-03T14:04:03.571Z,4.47
2018-07-03T14:06:32.678Z,10.77
2018-07-03T14:09:01.859Z,5.40
2018-07-03T14:11:30.950Z,3.90
2018-07-03T14:14:00.083Z,6.60
2018-07-03T14:16:29.249Z,2.17
2018-07-03T14:18:58.482Z,3.33
2018-07-03T14:21:27.628Z,1.80
2018-07-03T14:23:56.688Z,4.23
2018-07-03T14:26:25.778Z,1.90
2018-07-03T14:28:54.851Z,3.60
2018-07-03T14:31:24.130Z,9.70
2018-07-03T14:33:53.204Z,3.77
2018-07-03T14:36:22.635Z,2.07
2018-07-03T14:38:51.725Z,10.03
2018-07-03T14:41:20.811Z,2.50
2018-07-03T14:43:49.912Z,5.40
2018-07-03T14:46:19.189Z,3.73
2018-07-03T14:48:48.261Z,11.07
2018-07-03T14:51:18.295Z,3.73
2018-07-03T14:53:47.318Z,5.03
2018-07-03T14:56:16.426Z,2.73
2018-07-03T14:58:45.531Z,1.80
2018-07-03T15:01:14.726Z,7.10
2018-07-03T15:03:44.375Z,2.37
2018-07-03T15:06:13.440Z,4.13
2018-07-03T15:08:42.587Z,2.80
2018-07-03T15:11:11.700Z,3.83
2018-07-03T15:13:40.755Z,2.90
2018-07-03T15:16:10.283Z,6.53
2018-07-03T15:18:44.571Z,3.50
2018-07-03T15:21:13.666Z,2.20
2018-07-03T15:23:42.782Z,7.20
2018-07-03T15:26:11.846Z,5.20
2018-07-03T15:28:40.927Z,3.53
2018-07-03T15:31:10.389Z,2.50
2018-07-03T15:33:39.439Z,1.80
2018-07-03T15:36:08.506Z,4.53
2018-07-03T15:38:37.587Z,2.30
2018-07-03T15:41:06.774Z,4.53
2018-07-03T15:43:35.946Z,1.80
2018-07-03T15:46:05.378Z,6.97
2018-07-03T15:48:34.498Z,5.80
2018-07-03T15:51:03.853Z,4.60
2018-07-03T15:53:32.935Z,1.70
2018-07-03T15:56:01.981Z,2.80
2018-07-03T15:58:31.196Z,5.07
2018-07-03T16:01:00.281Z,3.00
2018-07-03T16:05:42.631Z,1.90
2018-07-03T16:08:38.900Z,2.17
2018-07-03T16:11:07.937Z,1.70
2018-07-03T16:13:37.066Z,5.40
2018-07-03T16:16:06.117Z,6.53
2018-07-03T16:18:35.633Z,2.07
2018-07-03T16:21:05.339Z,2.70
2018-07-03T16:23:34.503Z,6.00
2018-07-03T16:26:04.358Z,5.17
2018-07-03T16:28:38.061Z,2.07
2018-07-03T16:31:23.048Z,8.40
2018-07-03T16:33:58.670Z,12.57
2018-07-03T16:36:45.054Z,2.20
2018-07-03T16:39:15.960Z,2.60
2018-07-03T16:41:46.633Z,3.70
2018-07-03T16:44:16.636Z,2.17
2018-07-03T16:46:45.805Z,7.03
2018-07-03T16:49:14.833Z,1.97
2018-07-03T16:51:43.971Z,3.20
2018-07-03T16:54:13.114Z,6.53
2018-07-03T16:56:42.214Z,3.47
2018-07-03T16:59:11.543Z,1.90
2018-07-03T17:01:40.610Z,4.10
2018-07-03T17:04:09.720Z,2.80
2018-07-03T17:06:39.476Z,2.90
2018-07-03T17:09:10.340Z,16.00
2018-07-03T17:11:39.664Z,2.40
2018-07-03T17:14:10.258Z,4.93
2018-07-03T17:16:39.749Z,7.53
2018-07-03T17:19:14.151Z,5.90
2018-07-03T17:21:43.266Z,4.40
2018-07-03T17:24:12.841Z,3.47
2018-07-03T17:26:41.901Z,2.07
2018-07-03T17:29:11.044Z,2.40
2018-07-03T17:31:40.126Z,4.43
2018-07-03T17:34:09.195Z,6.73
2018-07-03T17:36:38.306Z,6.83
2018-07-03T17:39:14.555Z,5.00
2018-07-03T17:41:55.378Z,5.27
2018-07-03T17:44:35.082Z,2.70
2018-07-03T17:47:04.251Z,4.03
2018-07-03T17:49:33.352Z,12.63
2018-07-03T17:52:02.563Z,5.37
2018-07-03T17:54:31.659Z,3.50
2018-07-03T17:57:00.722Z,3.07
2018-07-03T17:59:29.917Z,2.60
2018-07-03T18:01:59.091Z,2.40
2018-07-03T18:04:28.166Z,5.87
2018-07-03T18:06:57.335Z,4.00
2018-07-03T18:09:26.520Z,4.93
2018-07-03T18:11:55.669Z,3.60
2018-07-03T18:14:25.126Z,5.40
2018-07-03T18:16:54.226Z,10.50
2018-07-03T18:19:28.408Z,3.60
2018-07-03T18:21:57.509Z,5.10
2018-07-03T18:24:26.574Z,2.00
2018-07-03T18:26:55.748Z,7.13
2018-07-03T18:29:25.285Z,2.67
2018-07-03T18:31:54.329Z,6.67
2018-07-03T18:34:23.728Z,4.23
2018-07-03T18:36:52.850Z,4.73
2018-07-03T18:39:21.980Z,3.53
2018-07-03T18:41:51.218Z,2.80
2018-07-03T18:44:20.729Z,2.50
2018-07-03T18:46:49.827Z,2.67
2018-07-03T18:49:18.863Z,2.47
2018-07-03T18:51:47.961Z,3.73
2018-07-03T18:54:17.064Z,2.57
2018-07-03T18:56:46.347Z,4.50
2018-07-03T18:59:15.424Z,8.30
2018-07-03T19:01:44.600Z,4.67
2018-07-03T19:04:13.874Z,7.70
2018-07-03T19:06:43.123Z,7.60
2018-07-03T19:09:12.243Z,22.27
2018-07-03T19:11:41.358Z,21.33
2018-07-03T19:14:10.455Z,30.57
2018-07-03T19:16:39.594Z,30.40
2018-07-03T19:19:08.760Z,20.13
2018-07-03T19:21:37.915Z,28.50
2018-07-03T19:24:07.125Z,19.33
2018-07-03T19:26:36.201Z,12.10
2018-07-03T19:29:05.442Z,34.23
2018-07-03T19:31:34.578Z,13.17
2018-07-03T19:34:03.773Z,11.77
2018-07-03T19:36:32.928Z,12.17
2018-07-03T19:39:02.121Z,7.73
2018-07-03T19:41:31.223Z,7.30
2018-07-03T19:44:00.383Z,19.57
2018-07-03T19:46:29.514Z,30.50
2018-07-03T19:48:58.625Z,51.60
2018-07-03T19:51:27.786Z,44.50
2018-07-03T19:53:56.964Z,55.50
2018-07-03T19:56:26.189Z,53.60
2018-07-03T19:58:55.256Z,62.63
2018-07-03T20:01:24.370Z,13.37
2018-07-03T20:03:54.006Z,22.77
2018-07-03T20:06:23.132Z,33.20
2018-07-03T20:08:52.436Z,26.63
2018-07-03T20:11:21.550Z,43.07
2018-07-03T20:13:50.786Z,36.90
2018-07-03T20:16:19.875Z,11.10
2018-07-03T20:18:49.368Z,4.57
2018-07-03T20:21:18.414Z,2.73
2018-07-03T20:23:47.797Z,2.47
2018-07-03T20:26:16.921Z,4.00
2018-07-03T20:28:46.054Z,3.13
2018-07-03T20:31:15.103Z,2.80
2018-07-03T20:33:45.172Z,3.33
2018-07-03T20:36:14.602Z,2.90
2018-07-03T20:38:43.813Z,4.20
2018-07-03T20:41:12.944Z,3.63
2018-07-03T20:43:42.662Z,3.10
2018-07-03T20:46:11.808Z,2.93
2018-07-03T20:48:40.879Z,4.30
2018-07-03T20:51:10.739Z,2.40
2018-07-03T20:53:39.803Z,2.83
2018-07-03T20:56:08.955Z,5.50
2018-07-03T20:58:38.168Z,2.80
2018-07-03T21:01:07.375Z,3.43
2018-07-03T21:03:36.459Z,3.20
2018-07-03T21:06:05.950Z,4.00
2018-07-03T21:08:34.922Z,3.90
2018-07-03T21:11:04.252Z,9.90
2018-07-03T21:13:33.301Z,6.33
2018-07-03T21:16:02.460Z,3.63
2018-07-03T21:18:32.150Z,13.70
2018-07-03T21:21:01.363Z,4.87
2018-07-03T21:23:30.444Z,5.00
2018-07-03T21:25:59.578Z,4.83
2018-07-03T21:28:28.766Z,3.70
2018-07-03T21:30:57.811Z,3.07
2018-07-03T21:33:26.909Z,3.20
2018-07-03T21:35:56.019Z,5.17
2018-07-03T21:38:25.148Z,4.50
2018-07-03T21:40:54.242Z,3.90
2018-07-03T21:43:23.268Z,3.10
2018-07-03T21:45:52.342Z,3.30
2018-07-03T21:48:21.448Z,3.20
2018-07-03T21:50:50.537Z,2.93
2018-07-03T21:53:19.614Z,2.83
2018-07-03T21:55:48.761Z,3.07
2018-07-03T21:58:17.882Z,3.53
2018-07-03T22:00:46.962Z,11.83
2018-07-03T22:03:15.994Z,5.20
2018-07-03T22:05:45.115Z,8.40
2018-07-03T22:08:14.168Z,2.67
2018-07-03T22:10:43.270Z,2.73
2018-07-03T22:13:12.380Z,3.33
2018-07-03T22:15:41.454Z,4.70
2018-07-03T22:18:10.510Z,3.37
2018-07-03T22:20:39.565Z,3.80
2018-07-03T22:23:08.606Z,4.77
2018-07-03T22:25:37.660Z,5.73
2018-07-03T22:28:06.717Z,6.03
2018-07-03T22:30:35.769Z,4.57
2018-07-03T22:33:04.803Z,2.77
2018-07-03T22:35:33.882Z,3.77
2018-07-03T22:38:02.928Z,2.93
2018-07-03T22:40:32.165Z,2.73
2018-07-03T22:43:01.251Z,8.33
2018-07-03T22:45:31.305Z,2.80
2018-07-03T22:48:00.341Z,6.20
2018-07-03T22:50:29.424Z,3.73
2018-07-03T22:52:58.674Z,2.80
2018-07-03T22:55:27.736Z,3.90
2018-07-03T22:57:56.742Z,4.20
2018-07-03T23:00:25.896Z,11.53
2018-07-03T23:02:54.980Z,3.67
2018-07-03T23:05:24.021Z,2.90
2018-07-03T23:07:53.179Z,5.63
2018-07-03T23:10:22.161Z,3.00
2018-07-03T23:12:51.255Z,3.07
2018-07-03T23:15:20.289Z,3.13
2018-07-03T23:17:49.383Z,4.10
2018-07-03T23:20:18.458Z,3.27
2018-07-03T23:22:47.510Z,6.00
2018-07-03T23:25:16.566Z,4.20
2018-07-03T23:27:45.597Z,2.67
2018-07-03T23:30:15.131Z,3.23
2018-07-03T23:32:44.244Z,6.30
2018-07-03T23:35:13.275Z,3.03
2018-07-03T23:37:42.372Z,3.27
2018-07-03T23:40:11.446Z,3.40
2018-07-03T23:42:40.594Z,2.90
2018-07-03T23:45:09.637Z,3.20
2018-07-03T23:47:49.860Z,3.87
2018-07-03T23:50:30.270Z,3.40
2018-07-03T23:53:10.629Z,4.20
2018-07-03T23:55:51.201Z,3.20
2018-07-03T23:58:31.570Z,3.00
